createdAt,value
2018-06-21T00:01:50.720Z,28.23
2018-06-21T00:04:18.700Z,27.80
2018-06-21T00:06:46.525Z,28.43
2018-06-21T00:09:14.496Z,28.87
2018-06-21T00:11:42.432Z,30.03
2018-06-21T00:14:10.171Z,28.47
2018-06-21T00:16:38.175Z,27.87
2018-06-21T00:19:06.085Z,26.90
2018-06-21T00:21:33.910Z,24.27
2018-06-21T00:24:01.987Z,26.17
2018-06-21T00:26:30.343Z,26.73
2018-06-21T00:28:58.719Z,25.93
2018-06-21T00:31:26.939Z,28.50
2018-06-21T00:33:56.271Z,26.93
2018-06-21T00:36:24.276Z,26.30
2018-06-21T00:38:52.556Z,24.30
2018-06-21T00:41:20.568Z,26.63
2018-06-21T00:43:48.517Z,25.50
2018-06-21T00:46:16.755Z,25.63
2018-06-21T00:48:44.516Z,26.20
2018-06-21T00:51:12.519Z,24.53
2018-06-21T00:53:40.865Z,25.00
2018-06-21T00:56:16.038Z,22.23
2018-06-21T00:58:44.778Z,24.03
2018-06-21T01:01:13.244Z,23.27
2018-06-21T01:03:41.248Z,20.37
2018-06-21T01:06:09.247Z,21.37
2018-06-21T01:08:37.506Z,20.97
2018-06-21T01:11:06.032Z,19.47
2018-06-21T01:13:33.961Z,19.80
2018-06-21T01:16:01.801Z,16.83
2018-06-21T01:18:29.758Z,18.40
2018-06-21T01:20:57.668Z,17.57
2018-06-21T01:23:25.798Z,16.70
2018-06-21T01:25:53.817Z,17.90
2018-06-21T01:28:22.051Z,18.80
2018-06-21T01:30:50.031Z,18.33
2018-06-21T01:33:18.046Z,16.90
2018-06-21T01:35:46.452Z,18.07
2018-06-21T01:38:14.648Z,17.50
2018-06-21T01:40:42.672Z,19.30
2018-06-21T06:13:53.976Z,4.33
2018-06-21T06:16:21.825Z,3.70
2018-06-21T06:18:50.036Z,3.63
2018-06-21T06:21:17.765Z,4.03
2018-06-21T06:23:45.726Z,3.90
2018-06-21T06:26:13.479Z,3.30
2018-06-21T06:28:41.416Z,3.40
2018-06-21T06:31:09.298Z,4.17
2018-06-21T06:33:37.285Z,3.47
2018-06-21T06:36:06.597Z,3.47
2018-06-21T06:38:34.477Z,2.90
2018-06-21T06:41:02.465Z,2.30
2018-06-21T06:43:30.597Z,2.53
2018-06-21T06:45:59.012Z,2.30
2018-06-21T06:48:27.185Z,2.00
2018-06-21T06:56:38.788Z,1.87
2018-06-21T06:59:07.193Z,1.77
2018-06-21T07:01:35.307Z,2.10
2018-06-21T07:04:03.264Z,2.27
2018-06-21T07:06:35.414Z,2.43
2018-06-21T07:09:05.907Z,1.60
2018-06-21T07:11:34.004Z,1.97
2018-06-21T07:14:01.803Z,1.77
2018-06-21T07:16:29.840Z,3.10
2018-06-21T07:18:57.720Z,2.77
2018-06-21T07:21:26.730Z,1.90
2018-06-21T07:23:58.198Z,2.27
2018-06-21T07:26:27.070Z,2.33
2018-06-21T07:28:55.085Z,1.90
2018-06-21T07:31:22.878Z,2.30
2018-06-21T07:33:51.066Z,2.37
2018-06-21T07:36:19.037Z,2.10
2018-06-21T07:38:47.022Z,1.97
2018-06-21T07:41:14.959Z,3.20
2018-06-21T07:43:43.439Z,2.37
2018-06-21T07:46:12.913Z,2.43
2018-06-21T07:48:42.842Z,2.60
2018-06-21T07:51:14.508Z,2.33
2018-06-21T07:53:43.466Z,2.43
2018-06-21T07:56:11.402Z,1.90
2018-06-21T07:58:42.150Z,1.93
2018-06-21T08:01:14.087Z,2.10
2018-06-21T08:03:43.046Z,2.07
2018-06-21T08:06:12.382Z,2.47
2018-06-21T08:08:40.380Z,1.80
2018-06-21T08:11:08.411Z,2.07
2018-06-21T08:13:36.789Z,1.30
2018-06-21T08:16:04.867Z,1.60
2018-06-21T08:18:32.889Z,1.90
2018-06-21T08:21:00.894Z,1.80
2018-06-21T08:23:28.950Z,1.40
2018-06-21T08:25:56.893Z,1.30
2018-06-21T08:28:24.763Z,1.40
2018-06-21T08:30:52.806Z,1.40
2018-06-21T08:33:20.598Z,1.80
2018-06-21T08:35:48.612Z,1.70
2018-06-21T08:38:16.602Z,1.83
2018-06-21T08:40:45.761Z,1.73
2018-06-21T08:43:13.617Z,1.80
2018-06-21T08:45:42.192Z,1.50
2018-06-21T08:48:11.275Z,2.07
2018-06-21T08:50:39.052Z,1.70
2018-06-21T08:53:06.995Z,2.30
2018-06-21T08:55:34.962Z,1.30
2018-06-21T08:58:02.914Z,2.03
2018-06-21T09:00:30.892Z,2.07
2018-06-21T09:02:58.822Z,1.83
2018-06-21T09:05:26.562Z,1.50
2018-06-21T09:07:54.684Z,1.37
2018-06-21T09:10:22.447Z,1.60
2018-06-21T09:12:51.764Z,1.63
2018-06-21T09:15:19.820Z,1.73
2018-06-21T09:17:48.979Z,2.63
2018-06-21T09:20:16.977Z,1.50
2018-06-21T09:22:45.182Z,1.70
2018-06-21T09:25:13.032Z,1.33
2018-06-21T09:27:41.097Z,2.10
2018-06-21T09:30:08.968Z,1.60
2018-06-21T09:32:38.573Z,2.30
2018-06-21T09:35:08.380Z,2.10
2018-06-21T09:37:42.589Z,1.67
2018-06-21T09:40:17.097Z,1.70
2018-06-21T09:42:51.440Z,1.97
2018-06-21T09:45:25.163Z,1.87
2018-06-21T09:48:00.012Z,2.50
2018-06-21T09:50:29.889Z,2.13
2018-06-21T09:52:59.271Z,2.93
2018-06-21T09:55:30.489Z,2.40
2018-06-21T09:57:58.757Z,2.00
2018-06-21T10:00:32.258Z,2.47
2018-06-21T10:03:00.455Z,2.30
2018-06-21T10:05:28.577Z,2.00
2018-06-21T10:07:56.671Z,2.60
2018-06-21T10:10:24.745Z,2.43
2018-06-21T10:12:52.786Z,2.20
2018-06-21T10:15:20.718Z,2.27
2018-06-21T10:17:48.819Z,2.70
2018-06-21T10:20:19.213Z,1.90
2018-06-21T10:22:48.059Z,2.83
2018-06-21T10:25:15.940Z,1.87
2018-06-21T10:27:44.119Z,2.13
2018-06-21T10:30:13.181Z,2.07
2018-06-21T10:32:41.178Z,2.10
2018-06-21T10:35:11.803Z,2.10
2018-06-21T10:37:41.597Z,1.83
2018-06-21T10:40:14.487Z,2.17
2018-06-21T10:42:44.728Z,2.53
2018-06-21T10:45:12.859Z,2.00
2018-06-21T10:47:46.317Z,1.57
2018-06-21T10:50:17.809Z,1.40
2018-06-21T10:52:51.871Z,1.20
2018-06-21T10:55:25.181Z,1.80
2018-06-21T10:57:53.547Z,2.50
2018-06-21T11:00:21.465Z,1.33
2018-06-21T11:02:50.437Z,1.57
2018-06-21T11:05:18.324Z,1.70
2018-06-21T11:07:47.331Z,1.60
2018-06-21T11:10:17.188Z,1.80
2018-06-21T11:12:50.457Z,1.80
2018-06-21T11:15:18.698Z,1.60
2018-06-21T11:17:46.435Z,1.73
2018-06-21T11:20:14.275Z,1.43
2018-06-21T11:22:42.063Z,1.33
2018-06-21T11:25:11.134Z,1.90
2018-06-21T11:27:38.891Z,1.83
2018-06-21T11:30:06.873Z,1.70
2018-06-21T11:32:34.821Z,3.07
2018-06-21T11:35:02.673Z,1.73
2018-06-21T11:37:30.426Z,1.17
2018-06-21T11:39:59.132Z,1.43
2018-06-21T11:42:27.158Z,1.73
2018-06-21T11:44:55.233Z,1.70
2018-06-21T11:47:23.615Z,2.20
2018-06-21T11:49:51.842Z,1.63
2018-06-21T11:52:20.107Z,1.57
2018-06-21T11:54:47.871Z,1.57
2018-06-21T11:57:15.658Z,1.73
2018-06-21T11:59:43.606Z,1.70
2018-06-21T12:02:11.700Z,1.43
2018-06-21T12:04:39.625Z,1.63
2018-06-21T12:07:07.714Z,1.40
2018-06-21T12:09:35.806Z,1.47
2018-06-21T12:12:03.586Z,1.40
2018-06-21T12:14:31.771Z,1.50
2018-06-21T12:16:59.552Z,1.57
2018-06-21T12:19:27.367Z,1.30
2018-06-21T12:21:55.212Z,1.50
2018-06-21T12:24:23.275Z,1.63
2018-06-21T12:26:51.227Z,1.77
2018-06-21T12:29:19.301Z,1.77
2018-06-21T12:31:47.363Z,1.73
2018-06-21T12:34:15.193Z,1.63
2018-06-21T12:36:43.225Z,1.20
2018-06-21T12:39:11.883Z,1.50
2018-06-21T12:41:39.586Z,1.50
2018-06-21T12:44:07.586Z,1.20
2018-06-21T12:46:35.411Z,1.53
2018-06-21T12:49:03.419Z,1.90
2018-06-21T12:51:31.456Z,1.60
2018-06-21T12:54:01.092Z,2.30
2018-06-21T12:56:29.813Z,1.80
2018-06-21T12:58:57.867Z,1.90
2018-06-21T13:01:32.801Z,2.87
2018-06-21T13:04:00.746Z,1.50
2018-06-21T13:06:28.507Z,1.60
2018-06-21T13:09:07.686Z,1.30
2018-06-21T13:11:41.055Z,1.87
2018-06-21T13:14:14.835Z,1.50
2018-06-21T13:16:43.387Z,1.70
2018-06-21T13:19:11.113Z,1.50
2018-06-21T13:21:38.941Z,1.50
2018-06-21T13:24:06.805Z,2.00
2018-06-21T13:26:34.612Z,1.80
2018-06-21T13:29:02.697Z,1.13
2018-06-21T13:31:30.597Z,1.40
2018-06-21T13:33:59.157Z,1.27
2018-06-21T13:36:27.149Z,1.80
2018-06-21T13:38:55.468Z,1.83
2018-06-21T13:44:01.345Z,1.80
2018-06-21T13:46:29.338Z,1.90
2018-06-21T13:49:04.349Z,1.97
2018-06-21T13:51:34.311Z,1.57
2018-06-21T13:54:02.074Z,1.57
2018-06-21T13:56:29.827Z,1.60
2018-06-21T13:58:57.826Z,1.60
2018-06-21T14:01:27.090Z,2.10
2018-06-21T14:03:56.523Z,1.70
2018-06-21T14:06:24.798Z,2.00
2018-06-21T14:08:52.649Z,1.80
2018-06-21T14:11:24.976Z,1.97
2018-06-21T14:13:52.978Z,1.67
2018-06-21T14:16:22.477Z,1.83
2018-06-21T14:18:50.909Z,1.70
2018-06-21T14:21:19.070Z,1.87
2018-06-21T14:23:47.066Z,1.90
2018-06-21T14:26:14.961Z,1.90
2018-06-21T14:28:43.002Z,1.70
2018-06-21T14:31:10.792Z,2.37
2018-06-21T14:33:39.739Z,1.67
2018-06-21T14:36:08.485Z,1.50
2018-06-21T14:38:37.471Z,1.10
2018-06-21T14:41:05.751Z,2.27
2018-06-21T14:43:33.645Z,1.33
2018-06-21T14:46:01.410Z,2.60
2018-06-21T14:48:29.174Z,1.87
2018-06-21T14:50:57.066Z,2.63
2018-06-21T14:53:24.934Z,2.87
2018-06-21T14:55:56.196Z,1.90
2018-06-21T14:58:27.434Z,1.70
2018-06-21T15:01:10.700Z,2.10
2018-06-21T15:03:38.455Z,1.53
2018-06-21T15:06:08.152Z,2.10
2018-06-21T15:08:41.223Z,1.80
2018-06-21T15:11:09.400Z,1.87
2018-06-21T15:13:37.129Z,1.90
2018-06-21T15:16:06.917Z,1.87
2018-06-21T15:18:34.742Z,2.07
2018-06-21T15:21:02.524Z,1.30
2018-06-21T15:23:30.545Z,1.80
2018-06-21T15:25:58.656Z,2.20
2018-06-21T15:28:26.444Z,2.27
2018-06-21T15:30:54.653Z,2.30
2018-06-21T15:33:23.510Z,2.30
2018-06-21T15:35:52.317Z,1.93
2018-06-21T15:38:22.189Z,1.70
2018-06-21T15:40:49.904Z,1.87
2018-06-21T15:43:17.691Z,1.90
2018-06-21T15:45:45.884Z,1.77
2018-06-21T15:48:13.646Z,1.67
2018-06-21T15:50:41.500Z,1.97
2018-06-21T15:53:11.035Z,1.50
2018-06-21T15:55:38.882Z,2.00
2018-06-21T15:58:06.947Z,1.00
2018-06-21T16:00:35.747Z,1.27
2018-06-21T16:03:03.590Z,1.10
2018-06-21T16:05:31.256Z,1.57
2018-06-21T16:07:59.475Z,1.73
2018-06-21T16:10:27.341Z,1.40
2018-06-21T16:12:55.204Z,1.50
2018-06-21T16:15:23.023Z,1.77
2018-06-21T16:17:51.130Z,3.00
2018-06-21T16:20:18.954Z,2.23
2018-06-21T16:22:47.303Z,2.07
2018-06-21T16:25:15.168Z,2.03
2018-06-21T16:27:43.035Z,2.50
2018-06-21T16:30:11.182Z,3.33
2018-06-21T16:32:38.908Z,3.70
2018-06-21T16:35:06.800Z,1.83
2018-06-21T16:37:35.706Z,2.00
2018-06-21T16:40:03.740Z,2.13
2018-06-21T16:42:31.462Z,1.73
2018-06-21T16:44:59.388Z,1.70
2018-06-21T16:47:27.272Z,1.37
2018-06-21T16:49:55.094Z,1.30
2018-06-21T16:52:22.900Z,1.80
2018-06-21T16:54:50.631Z,2.27
2018-06-21T16:57:18.467Z,2.27
2018-06-21T16:59:52.505Z,1.90
2018-06-21T17:02:21.342Z,2.23
2018-06-21T17:04:51.930Z,1.90
2018-06-21T17:07:20.065Z,2.43
2018-06-21T17:09:47.769Z,2.10
2018-06-21T17:12:20.383Z,2.80
2018-06-21T17:14:48.078Z,2.20
2018-06-21T17:17:15.981Z,2.20
2018-06-21T17:19:43.845Z,2.27
2018-06-21T17:22:46.274Z,2.80
2018-06-21T17:25:18.033Z,1.80
2018-06-21T17:27:46.654Z,1.43
2018-06-21T17:30:14.955Z,1.30
2018-06-21T17:32:45.737Z,1.30
2018-06-21T17:35:15.179Z,1.33
2018-06-21T17:37:43.021Z,1.30
2018-06-21T17:40:20.508Z,1.43
2018-06-21T17:42:48.223Z,1.27
2018-06-21T17:45:17.444Z,2.13
2018-06-21T17:47:47.403Z,1.47
2018-06-21T17:50:20.698Z,1.53
2018-06-21T17:52:49.939Z,2.07
2018-06-21T17:55:17.720Z,1.53
2018-06-21T17:57:51.589Z,1.77
2018-06-21T18:00:27.041Z,1.50
2018-06-21T18:02:57.411Z,2.50
2018-06-21T18:05:25.932Z,2.27
2018-06-21T18:07:54.007Z,1.57
2018-06-21T18:10:22.205Z,1.50
2018-06-21T18:12:50.094Z,2.00
2018-06-21T18:15:18.045Z,2.07
2018-06-21T18:17:46.063Z,1.93
2018-06-21T19:26:33.036Z,1.90
2018-06-21T19:29:12.102Z,1.97
2018-06-21T19:31:46.133Z,1.93
2018-06-21T19:44:18.636Z,2.87
2018-06-21T19:46:55.035Z,1.50
2018-06-21T19:49:35.100Z,1.70
2018-06-21T19:52:03.987Z,2.17
2018-06-21T19:59:19.976Z,1.40
2018-06-21T20:05:15.053Z,1.83
2018-06-21T20:07:54.706Z,1.57
2018-06-21T20:10:22.523Z,1.80
2018-06-21T20:12:50.378Z,1.80
2018-06-21T20:15:18.915Z,1.90
2018-06-21T20:17:46.804Z,1.60
2018-06-21T20:20:20.457Z,1.37
2018-06-21T20:30:14.625Z,1.50
2018-06-21T20:32:42.662Z,1.90
2018-06-21T20:35:10.369Z,1.90
2018-06-21T20:37:38.377Z,2.43
2018-06-21T20:40:06.299Z,1.60
2018-06-21T20:48:02.540Z,1.63
2018-06-21T20:53:51.425Z,1.43
2018-06-21T20:56:33.517Z,1.53
2018-06-21T21:00:11.154Z,1.53
2018-06-21T21:02:39.039Z,2.00
2018-06-21T21:05:09.239Z,1.90
2018-06-21T21:07:37.181Z,1.30
2018-06-21T21:10:07.015Z,2.20
2018-06-21T21:12:35.181Z,1.60
2018-06-21T21:15:04.402Z,2.30
2018-06-21T21:17:32.427Z,1.97
2018-06-21T21:20:00.837Z,2.27
2018-06-21T21:22:28.861Z,2.43
2018-06-21T21:25:09.806Z,1.63
2018-06-21T21:34:16.063Z,1.57
2018-06-21T21:37:22.447Z,1.20
2018-06-21T21:39:50.222Z,1.40
2018-06-21T21:42:18.809Z,1.60
2018-06-21T21:48:49.693Z,1.83
2018-06-21T22:03:54.233Z,1.43
2018-06-21T22:06:22.817Z,2.07
2018-06-21T22:08:50.655Z,1.60
2018-06-21T22:11:18.687Z,1.63
2018-06-21T22:17:01.042Z,1.83
2018-06-21T22:19:43.495Z,1.40
2018-06-21T22:25:35.372Z,1.80
2018-06-21T22:28:03.154Z,1.50
2018-06-21T22:30:31.672Z,2.27
2018-06-21T22:33:00.174Z,2.17
2018-06-21T22:35:28.469Z,2.50
2018-06-21T22:37:56.434Z,2.20
2018-06-21T22:40:24.628Z,1.50
2018-06-21T22:42:52.531Z,2.20
2018-06-21T22:45:20.404Z,2.33
2018-06-21T22:47:48.614Z,2.20
2018-06-21T22:50:16.643Z,1.77
2018-06-21T22:52:44.493Z,3.90
2018-06-21T22:55:12.779Z,1.60
2018-06-21T22:57:40.897Z,1.40
2018-06-21T23:00:08.798Z,2.07
2018-06-21T23:02:36.845Z,3.03
2018-06-21T23:05:04.776Z,1.77
2018-06-21T23:07:32.810Z,2.17
2018-06-21T23:10:01.054Z,2.20
2018-06-21T23:12:28.928Z,2.13
2018-06-21T23:14:56.628Z,1.87
2018-06-21T23:17:24.792Z,3.03
2018-06-21T23:19:52.667Z,1.73
2018-06-21T23:22:20.461Z,2.63
2018-06-21T23:24:50.500Z,2.30
2018-06-21T23:27:18.630Z,2.77
2018-06-21T23:29:46.540Z,1.70
2018-06-21T23:32:14.736Z,3.77
2018-06-21T23:34:44.328Z,1.60
2018-06-21T23:37:12.243Z,2.00
2018-06-21T23:39:40.340Z,2.30
2018-06-21T23:42:08.311Z,2.10
2018-06-21T23:44:36.266Z,1.60
2018-06-21T23:47:04.406Z,1.80
2018-06-21T23:49:32.250Z,2.27
2018-06-21T23:52:00.046Z,2.97
2018-06-21T23:54:28.470Z,1.80
2018-06-21T23:56:56.427Z,2.20
2018-06-21T23:59:24.143Z,1.87
